EICKBIAR

Guest
Details From EICK - Cork
To BIAR - Akureyri
Flight Number -
Tags Generated
Created
Modified
Stats Distance 879 nm / 1,628 km
Max Altitude 0 ft / 0 m
Waypoints 3
Social Downloads 1
Likes 0
Share VATSIM

Download

Looking for another format? Having issues loading an existing format? Contact us
Advertisement - Login to hide

Notes

Generated

Route

EICK HV BIAR

ID Type Via Altitude Latitude Longitude Leg Dist Tot Dist Heading (true) Name
O EICK APT - 0 ft / 0 m 51.84143˚ -8.49570˚ - 0 nm - -
HV NDB - 0 ft / 0 m 65.63556˚ -18.06778˚ 878 nm 878 nm 344° / 336° -
O BIAR APT - 0 ft / 0 m 65.64996˚ -18.07072˚ 0 nm 879 nm 355° / 355° -

Altitude Profile

Advertisement - Login to hide

Weather


0- 5 10 15 20 25 30 35+ Temperature / ° C

Clouds and Precipitation
Forecast for 2018-05-23 12:00 UTC. Updated 18 minutes ago

Ground ~20,000 ft ~40,000 ft Winds

EICK

Details ICAO EICK (ORK)
Name Cork
Region Ireland
Timezone Europe/Dublin (UTC+1.0)
Stats Elevation 502 ft / 153 m (AMSL)
Location 51.842605° -8.489056°
Runways 2
Magnetic Variation 3.541° W

METAR

EICK 231130Z 10011KT 9999 FEW019 SCT280 17/12 Q1024 NOSIG

Decode

TAF

Not found

Departure Runways

ID Width Length Bearing (true) Bearing (mag) Surface Threshold Offset Overrun Length
07 148 ft / 45 m 4,281 ft / 1,305 m 62.55° 66.09° Concrete 0 ft / 0 m 0 ft / 0 m
17 148 ft / 45 m 6,992 ft / 2,131 m 159.93° 163.47° Asphalt 0 ft / 0 m 115 ft / 35 m
25 148 ft / 45 m 4,281 ft / 1,305 m 242.57° 246.11° Concrete 0 ft / 0 m 39 ft / 12 m
35 148 ft / 45 m 6,992 ft / 2,131 m 339.94° 343.48° Asphalt 0 ft / 0 m 0 ft / 0 m

BIAR

Details ICAO BIAR (AEY)
Name Akureyri
Region Iceland
Timezone Unknown (UTC+0.0)
Stats Elevation 5 ft / 2 m (AMSL)
Location 65.656574° -18.071975°
Runways 1
Magnetic Variation 12.177° W

METAR

BIAR 231100Z 20017G27KT 170V230 9999 SCT055 12/M01 Q1009

Decode

TAF

TAF BIAR 230756Z 2309/2409 19023G33KT 9999 FEW055 TX13/2315Z TN05/2404Z BECMG 2314/2317 19012KT BECMG 2320/2322 VRB05KT BECMG 2406/2409 RA BKN020 OVC030

Decode

Destination Runways

ID Width Length Bearing (true) Bearing (mag) Surface Threshold Offset Overrun Length
01 148 ft / 45 m 7,855 ft / 2,394 m 355.54° 7.72° Asphalt 0 ft / 0 m 0 ft / 0 m
19 148 ft / 45 m 7,855 ft / 2,394 m 175.54° 187.72° Asphalt 0 ft / 0 m 0 ft / 0 m

Approach Navaids

Runway Type Ident Frequency Range Bearing (true) Bearing (mag) Slope Elevation
01 Localiser IEY 111.90 MHz 18 nm / 33 km 24.00° 36.18° - 200 ft / 61 m (AMSL)
01 Glidescope IEY 111.90 MHz 10 nm / 19 km 358.14° 10.32° 5.00° 44 ft / 13 m (AMSL)